Time;durP1;ratioP1;P1;durP2;ratioP2;P2;SDS_P1;SDS_P2;PMS_P1;PMS_P2;Temp;Humidity;BMP_temperature;BMP_pressure;BME280_temperature;BME280_humidity;BME280_pressure;Samples;Min_cycle;Max_cycle;Signal;HPM_P1;HPM_P2
2024/01/08 00:00:05;;;;;;;;;;;;;;;-2.85;61.87;96142.50;5016104;28;20386;-71
2024/01/08 00:02:30;;;;;;;;;;;;;;;-2.83;66.21;96138.88;5014756;28;20074;-72
2024/01/08 00:04:56;;;;;;;;;;;;;;;-2.73;65.05;96148.81;5019441;28;19936;-72
2024/01/08 00:07:21;;;;;;;;;;;;;;;-2.80;64.74;96154.34;5019361;28;19925;-72
2024/01/08 00:09:46;;;;;;;;;;;;;;;-2.79;65.61;96143.00;5019229;28;19960;-72
2024/01/08 00:12:12;;;;;;;;;;;;;;;-2.75;57.33;96151.50;5018580;28;19958;-72
2024/01/08 00:14:38;;;;;;;;;;;;;;;-3.07;58.22;96149.66;5015699;28;19968;-71
2024/01/08 00:17:03;;;;;;;;;;;;;;;-2.88;66.26;96152.13;5012475;28;20413;-72
2024/01/08 00:19:28;;;;;;;;;;;;;;;-2.98;66.50;96143.13;5016774;28;20015;-73
2024/01/08 00:21:53;;;;;;;;;;;;;;;-2.88;62.98;96144.31;5017909;28;19917;-73
2024/01/08 00:24:19;;;;;;;;;;;;;;;-2.75;71.57;96143.69;5017324;28;20452;-72
2024/01/08 00:26:44;;;;;;;;;;;;;;;-2.58;72.37;96141.94;5017208;28;19939;-72
2024/01/08 00:29:10;;;;;;;;;;;;;;;-2.30;72.77;96143.03;5017224;28;19931;-72
2024/01/08 00:31:35;;;;;;;;;;;;;;;-2.19;73.36;96140.69;5016251;28;19989;-72
2024/01/08 00:34:00;;;;;;;;;;;;;;;-2.17;66.76;96140.59;5013027;28;19951;-72
2024/01/08 00:36:26;;;;;;;;;;;;;;;-2.10;71.70;96139.34;5017281;28;20199;-71
2024/01/08 00:38:51;;;;;;;;;;;;;;;-1.94;68.63;96133.25;5016165;28;20155;-71
2024/01/08 00:41:16;;;;;;;;;;;;;;;-2.33;50.68;96133.63;5017603;28;20401;-71
2024/01/08 00:43:41;;;;;;;;;;;;;;;-2.19;62.75;96137.22;5015980;28;19925;-72
2024/01/08 00:46:07;;;;;;;;;;;;;;;-2.18;67.92;96146.72;5015884;28;20279;-72
2024/01/08 00:48:32;;;;;;;;;;;;;;;-2.18;61.69;96137.13;5017020;28;20075;-73
2024/01/08 00:50:58;;;;;;;;;;;;;;;-2.25;62.19;96139.25;5017065;28;20199;-72
2024/01/08 00:53:23;;;;;;;;;;;;;;;-2.35;58.25;96139.84;5017222;28;20419;-72
2024/01/08 00:55:48;;;;;;;;;;;;;;;-2.68;47.62;96136.38;5015321;28;19925;-70
2024/01/08 00:58:14;;;;;;;;;;;;;;;-2.72;55.57;96140.91;5016829;28;20424;-70
2024/01/08 01:00:39;;;;;;;;;;;;;;;-2.71;56.00;96139.16;5009640;28;20232;-70
2024/01/08 01:03:19;;;;;;;;;;;;;;;-2.81;58.92;96134.44;5013669;28;19925;-70
2024/01/08 01:05:45;;;;;;;;;;;;;;;-3.12;59.05;96143.00;5015941;28;19974;-70
2024/01/08 01:08:10;;;;;;;;;;;;;;;-2.85;58.33;96142.50;5015515;28;19924;-70
2024/01/08 01:10:35;;;;;;;;;;;;;;;-2.89;62.38;96147.00;5016379;28;19931;-70
2024/01/08 01:13:01;;;;;;;;;;;;;;;-3.12;55.61;96149.06;5015469;28;20450;-70
2024/01/08 01:15:26;;;;;;;;;;;;;;;-3.11;56.92;96142.94;5013458;28;19929;-70
2024/01/08 01:17:51;;;;;;;;;;;;;;;-2.98;64.00;96148.34;5015083;28;19952;-69
2024/01/08 01:20:16;;;;;;;;;;;;;;;-2.78;63.90;96141.25;5015299;28;19932;-69
2024/01/08 01:22:42;;;;;;;;;;;;;;;-2.89;66.04;96145.25;5014982;28;20027;-70
2024/01/08 01:25:07;;;;;;;;;;;;;;;-2.93;61.92;96137.66;5015577;28;19921;-70
2024/01/08 01:27:32;;;;;;;;;;;;;;;-2.95;61.82;96142.94;5015289;28;19921;-70
2024/01/08 01:29:58;;;;;;;;;;;;;;;-2.92;56.33;96129.78;5014419;28;19971;-69
2024/01/08 01:32:23;;;;;;;;;;;;;;;-3.31;59.48;96137.00;5013417;28;19922;-69
2024/01/08 01:34:48;;;;;;;;;;;;;;;-3.08;60.40;96142.78;5010129;28;19955;-70
2024/01/08 01:37:13;;;;;;;;;;;;;;;-3.03;61.49;96145.97;5015449;28;19941;-69
2024/01/08 01:39:39;;;;;;;;;;;;;;;-3.18;63.80;96145.03;5011767;28;20280;-70
2024/01/08 01:42:04;;;;;;;;;;;;;;;-3.17;60.56;96145.84;5013536;28;20227;-70
2024/01/08 01:44:29;;;;;;;;;;;;;;;-3.13;62.77;96139.56;5012988;28;19925;-70
2024/01/08 01:46:54;;;;;;;;;;;;;;;-3.13;62.74;96139.56;5014995;28;19988;-70
2024/01/08 01:49:20;;;;;;;;;;;;;;;-2.96;59.51;96130.84;5014998;28;19909;-70
2024/01/08 01:51:46;;;;;;;;;;;;;;;-3.12;56.21;96143.00;5014031;28;19929;-70
2024/01/08 01:54:12;;;;;;;;;;;;;;;-3.07;56.61;96141.00;5015645;28;19928;-70
2024/01/08 01:56:37;;;;;;;;;;;;;;;-3.16;56.43;96130.13;5012609;28;20325;-70
2024/01/08 01:59:03;;;;;;;;;;;;;;;-3.07;63.50;96138.38;5011822;28;20414;-70
2024/01/08 02:01:29;;;;;;;;;;;;;;;-2.96;62.73;96136.06;5012502;28;20016;-70
2024/01/08 02:03:54;;;;;;;;;;;;;;;-2.80;63.00;96130.91;5015418;28;20227;-70
2024/01/08 02:06:19;;;;;;;;;;;;;;;-3.00;62.12;96139.75;5015504;28;19932;-71
2024/01/08 02:08:44;;;;;;;;;;;;;;;-2.82;60.80;96139.72;5013894;28;19921;-71
2024/01/08 02:11:10;;;;;;;;;;;;;;;-2.83;64.41;96144.09;5013966;28;20223;-71
2024/01/08 02:13:35;;;;;;;;;;;;;;;-2.85;62.10;96151.13;5013029;28;19921;-71
2024/01/08 02:16:00;;;;;;;;;;;;;;;-3.04;55.42;96136.50;5012923;28;19925;-71
2024/01/08 02:18:25;;;;;;;;;;;;;;;-2.85;65.01;96143.31;5012537;28;19964;-70
2024/01/08 02:20:51;;;;;;;;;;;;;;;-2.91;57.60;96141.91;5013263;28;19929;-71
2024/01/08 02:23:16;;;;;;;;;;;;;;;-2.75;64.75;96147.13;5009990;28;19925;-71
2024/01/08 02:25:41;;;;;;;;;;;;;;;-2.98;59.44;96142.28;5013509;28;20544;-71
2024/01/08 02:28:06;;;;;;;;;;;;;;;-2.92;61.84;96145.41;5008565;28;19965;-71
2024/01/08 02:30:32;;;;;;;;;;;;;;;-2.88;60.63;96140.91;5012831;28;19921;-71
2024/01/08 02:32:57;;;;;;;;;;;;;;;-3.02;65.78;96136.41;5010486;28;20310;-70
2024/01/08 02:35:22;;;;;;;;;;;;;;;-3.02;63.91;96145.03;5014056;28;20279;-71
2024/01/08 02:37:47;;;;;;;;;;;;;;;-3.83;56.16;96141.28;5013402;28;19929;-71
2024/01/08 02:40:13;;;;;;;;;;;;;;;-3.34;64.12;96144.09;5010253;28;19929;-71
2024/01/08 02:42:39;;;;;;;;;;;;;;;-3.28;55.98;96142.03;5013985;28;20310;-71
2024/01/08 02:45:05;;;;;;;;;;;;;;;-3.43;57.76;96150.63;5009896;28;19990;-71
2024/01/08 02:47:30;;;;;;;;;;;;;;;-3.42;57.07;96149.72;5011904;28;19925;-71
2024/01/08 02:49:55;;;;;;;;;;;;;;;-3.15;58.96;96141.41;5012614;28;19925;-70
2024/01/08 02:52:20;;;;;;;;;;;;;;;-3.43;54.95;96154.06;5012351;28;20357;-70
2024/01/08 02:54:46;;;;;;;;;;;;;;;-3.47;55.88;96154.31;5012882;28;19929;-71
2024/01/08 02:57:11;;;;;;;;;;;;;;;-3.41;57.17;96151.38;5012663;28;20295;-71
2024/01/08 02:59:36;;;;;;;;;;;;;;;-3.30;61.05;96154.28;5009943;28;19977;-71
2024/01/08 03:02:01;;;;;;;;;;;;;;;-3.04;65.21;96159.09;5013641;28;19980;-71
2024/01/08 03:04:27;;;;;;;;;;;;;;;-2.99;63.06;96145.81;5011194;28;20339;-71
2024/01/08 03:06:52;;;;;;;;;;;;;;;-3.17;63.71;96145.84;5013611;28;19921;-71
2024/01/08 03:09:18;;;;;;;;;;;;;;;-3.16;61.52;96144.94;5014784;28;19957;-71
2024/01/08 03:11:43;;;;;;;;;;;;;;;-3.25;60.84;96146.25;5014522;28;19921;-71
2024/01/08 03:14:08;;;;;;;;;;;;;;;-3.09;59.74;96150.66;5013891;28;20536;-71
2024/01/08 03:16:33;;;;;;;;;;;;;;;-3.05;61.81;96154.81;5013142;28;19928;-73
2024/01/08 03:18:59;;;;;;;;;;;;;;;-3.18;61.38;96151.97;5012339;28;19925;-73
2024/01/08 03:21:24;;;;;;;;;;;;;;;-3.14;56.21;96156.09;5014560;28;20015;-73
2024/01/08 03:23:49;;;;;;;;;;;;;;;-3.05;58.59;96155.63;5013907;28;20042;-73
2024/01/08 03:26:14;;;;;;;;;;;;;;;-2.82;64.21;96145.75;5013906;28;19921;-72
2024/01/08 03:28:40;;;;;;;;;;;;;;;-2.93;59.63;96143.72;5013063;28;19968;-73
2024/01/08 03:31:05;;;;;;;;;;;;;;;-2.97;60.51;96143.97;5014037;28;19928;-73
2024/01/08 03:33:30;;;;;;;;;;;;;;;-3.09;57.24;96150.66;5010892;28;20402;-72
2024/01/08 03:35:55;;;;;;;;;;;;;;;-3.22;51.90;96146.09;5013840;28;19948;-73
2024/01/08 03:38:21;;;;;;;;;;;;;;;-3.30;64.31;96149.09;5014444;28;19933;-72
2024/01/08 03:40:46;;;;;;;;;;;;;;;-3.16;65.51;96155.38;5013811;28;20429;-73
2024/01/08 03:43:12;;;;;;;;;;;;;;;-2.98;59.52;96147.50;5013596;28;20066;-73
2024/01/08 03:45:37;;;;;;;;;;;;;;;-2.89;62.48;96147.00;5016186;28;19960;-72
2024/01/08 03:48:03;;;;;;;;;;;;;;;-3.20;56.84;96141.63;5014214;28;20008;-74
2024/01/08 03:50:28;;;;;;;;;;;;;;;-3.14;63.75;96148.28;5015830;28;20397;-72
2024/01/08 03:52:53;;;;;;;;;;;;;;;-3.31;60.47;96147.41;5016184;28;19969;-72
2024/01/08 03:55:18;;;;;;;;;;;;;;;-3.18;65.35;96149.38;5013360;28;19929;-73
2024/01/08 03:57:44;;;;;;;;;;;;;;;-2.98;64.94;96152.72;5014600;28;20425;-73
2024/01/08 04:00:09;;;;;;;;;;;;;;;-3.06;63.93;96156.56;5014329;28;19921;-72
2024/01/08 04:02:34;;;;;;;;;;;;;;;-4.25;46.55;96147.66;5011309;28;20026;-73
2024/01/08 04:05:01;;;;;;;;;;;;;;;-3.91;59.35;96148.59;5015889;28;19951;-73
2024/01/08 04:07:26;;;;;;;;;;;;;;;-3.43;59.47;96145.44;5015933;28;20287;-73
2024/01/08 04:09:51;;;;;;;;;;;;;;;-4.00;51.52;96149.91;5015929;28;20161;-73
2024/01/08 04:12:17;;;;;;;;;;;;;;;-3.78;62.32;96154.91;5015481;28;20604;-72
2024/01/08 04:14:42;;;;;;;;;;;;;;;-3.53;62.58;96160.66;5016038;28;20137;-72
2024/01/08 04:17:07;;;;;;;;;;;;;;;-4.21;52.38;96146.59;5014930;28;20004;-74
2024/01/08 04:19:33;;;;;;;;;;;;;;;-3.62;62.08;96150.69;5015780;28;20085;-73
2024/01/08 04:21:58;;;;;;;;;;;;;;;-3.44;59.39;96148.94;5016180;28;19923;-72
2024/01/08 04:24:24;;;;;;;;;;;;;;;-3.85;58.30;96148.31;5013644;28;19921;-73
2024/01/08 04:26:50;;;;;;;;;;;;;;;-3.61;63.04;96155.84;5016175;28;19976;-70
2024/01/08 04:29:15;;;;;;;;;;;;;;;-3.58;58.36;96157.44;5017412;28;20551;-70
2024/01/08 04:31:40;;;;;;;;;;;;;;;-3.69;57.14;96152.78;5016080;28;19990;-73
2024/01/08 04:34:05;;;;;;;;;;;;;;;-3.72;58.58;96158.13;5010198;28;20014;-70
2024/01/08 04:36:31;;;;;;;;;;;;;;;-3.59;57.91;96159.22;5016776;28;19975;-70
2024/01/08 04:38:56;;;;;;;;;;;;;;;-3.55;59.65;96154.69;5015244;28;19964;-70
2024/01/08 04:41:21;;;;;;;;;;;;;;;-3.75;53.12;96159.13;5016585;28;20399;-70
2024/01/08 04:43:47;;;;;;;;;;;;;;;-3.93;52.02;96142.66;5013577;28;20372;-70
2024/01/08 04:46:12;;;;;;;;;;;;;;;-3.92;54.47;96157.34;5014338;28;19921;-70
2024/01/08 04:48:37;;;;;;;;;;;;;;;-3.52;62.96;96159.75;5015791;28;19929;-71
2024/01/08 04:51:03;;;;;;;;;;;;;;;-3.56;58.58;96163.41;5016841;28;20068;-71
2024/01/08 04:53:28;;;;;;;;;;;;;;;-3.37;62.00;96159.91;5017129;28;20605;-70
2024/01/08 04:55:53;;;;;;;;;;;;;;;-3.30;60.06;96174.28;5016168;28;19991;-70
2024/01/08 04:58:19;;;;;;;;;;;;;;;-3.14;65.46;96169.13;5015795;28;19955;-70
2024/01/08 05:00:44;;;;;;;;;;;;;;;-3.66;59.39;96161.25;5017043;28;20405;-70
2024/01/08 05:03:09;;;;;;;;;;;;;;;-3.59;57.36;96163.56;5016702;28;19966;-70
2024/01/08 05:05:35;;;;;;;;;;;;;;;-3.20;63.55;96167.69;5017195;28;19992;-70
2024/01/08 05:08:00;;;;;;;;;;;;;;;-3.37;59.92;96168.53;5015982;28;19965;-70
2024/01/08 05:10:25;;;;;;;;;;;;;;;-3.28;64.69;96168.09;5016810;28;19936;-70
2024/01/08 05:12:50;;;;;;;;;;;;;;;-3.47;64.10;96162.13;5016492;28;19921;-69
2024/01/08 05:15:16;;;;;;;;;;;;;;;-3.42;57.38;96160.97;5014146;28;20678;-70
2024/01/08 05:17:41;;;;;;;;;;;;;;;-3.36;64.05;96170.22;5016562;28;19925;-70
2024/01/08 05:20:06;;;;;;;;;;;;;;;-3.39;64.92;96162.59;5016286;28;20249;-70
2024/01/08 05:22:32;;;;;;;;;;;;;;;-3.23;65.89;96165.22;5017371;28;19956;-71
2024/01/08 05:24:57;;;;;;;;;;;;;;;-3.19;66.46;96161.53;5015793;28;20232;-71
2024/01/08 05:27:22;;;;;;;;;;;;;;;-3.02;65.76;96165.06;5015333;28;20007;-70
2024/01/08 05:29:47;;;;;;;;;;;;;;;-3.12;64.72;96161.25;5015023;28;20159;-70
2024/01/08 05:32:13;;;;;;;;;;;;;;;-3.04;64.71;96172.09;5013648;28;20018;-70
2024/01/08 05:34:38;;;;;;;;;;;;;;;-2.99;64.78;96174.47;5015515;28;19925;-71
2024/01/08 05:37:03;;;;;;;;;;;;;;;-3.09;64.11;96169.72;5015372;28;19929;-73
2024/01/08 05:39:29;;;;;;;;;;;;;;;-3.09;64.95;96169.72;5015526;28;20077;-73
2024/01/08 05:41:54;;;;;;;;;;;;;;;-3.03;64.99;96168.56;5016189;28;19921;-74
2024/01/08 05:44:19;;;;;;;;;;;;;;;-2.96;61.24;96172.56;5014451;28;20356;-73
2024/01/08 05:46:45;;;;;;;;;;;;;;;-3.05;62.31;96167.81;5013721;28;20075;-73
2024/01/08 05:49:10;;;;;;;;;;;;;;;-3.03;64.82;96166.81;5015432;28;19920;-73
2024/01/08 05:51:36;;;;;;;;;;;;;;;-3.64;52.24;96169.00;5015867;28;19925;-73
2024/01/08 05:54:02;;;;;;;;;;;;;;;-3.27;65.22;96172.38;5015906;28;19960;-74
2024/01/08 05:56:27;;;;;;;;;;;;;;;-3.40;61.24;96169.53;5015340;28;20031;-74
2024/01/08 05:58:53;;;;;;;;;;;;;;;-3.05;67.26;96173.84;5014371;28;20036;-73
2024/01/08 06:01:19;;;;;;;;;;;;;;;-3.16;63.59;96171.00;5010260;28;20433;-73
2024/01/08 06:03:45;;;;;;;;;;;;;;;-2.97;65.49;96172.63;5015405;28;19956;-73
2024/01/08 06:06:13;;;;;;;;;;;;;;;-2.97;64.32;96170.88;5015929;28;19967;-73
2024/01/08 06:08:40;;;;;;;;;;;;;;;-3.01;63.25;96180.63;5013647;28;19971;-73
2024/01/08 06:11:06;;;;;;;;;;;;;;;-3.05;61.80;96176.47;5014694;28;20389;-73
2024/01/08 06:13:31;;;;;;;;;;;;;;;-2.93;63.73;96180.22;5015222;28;19929;-73
2024/01/08 06:15:56;;;;;;;;;;;;;;;-3.16;58.71;96177.03;5013858;28;19983;-74
2024/01/08 06:18:21;;;;;;;;;;;;;;;-3.33;61.56;96177.06;5015382;28;20297;-73
2024/01/08 06:20:47;;;;;;;;;;;;;;;-3.23;63.58;96185.25;5015119;28;19929;-73
2024/01/08 06:23:12;;;;;;;;;;;;;;;-3.01;64.90;96184.97;5014824;28;20447;-74
2024/01/08 06:25:37;;;;;;;;;;;;;;;-2.91;65.92;96185.34;5014324;28;20355;-74
2024/01/08 06:28:03;;;;;;;;;;;;;;;-2.85;65.14;96184.19;5014938;28;20240;-73
2024/01/08 06:30:28;;;;;;;;;;;;;;;-2.93;62.04;96176.75;5014721;28;19921;-74
2024/01/08 06:32:54;;;;;;;;;;;;;;;-3.00;62.96;96181.44;5013645;28;20240;-73
2024/01/08 06:35:19;;;;;;;;;;;;;;;-3.23;62.46;96180.84;5018957;28;19970;-73
2024/01/08 06:37:44;;;;;;;;;;;;;;;-3.18;66.53;96178.03;5016077;28;19998;-73
2024/01/08 06:40:10;;;;;;;;;;;;;;;-3.66;53.34;96174.28;5018129;28;19928;-73
2024/01/08 06:42:35;;;;;;;;;;;;;;;-3.25;63.11;96171.44;5018142;28;20173;-73
2024/01/08 06:45:00;;;;;;;;;;;;;;;-3.44;65.69;96178.44;5012750;28;19971;-74
2024/01/08 06:47:25;;;;;;;;;;;;;;;-3.47;59.50;96177.75;5015127;28;20023;-71
2024/01/08 06:49:51;;;;;;;;;;;;;;;-3.17;63.72;96174.50;5014720;28;19925;-70
2024/01/08 06:52:16;;;;;;;;;;;;;;;-3.20;62.19;96180.72;5015387;28;19944;-71
2024/01/08 06:54:41;;;;;;;;;;;;;;;-3.37;60.31;96178.97;5016563;28;19931;-71
2024/01/08 06:57:06;;;;;;;;;;;;;;;-3.19;62.37;96178.97;5015191;28;19964;-69
2024/01/08 06:59:32;;;;;;;;;;;;;;;-3.06;64.40;96182.59;5009006;28;20047;-70
2024/01/08 07:01:57;;;;;;;;;;;;;;;-3.24;60.60;96184.41;5014826;28;20512;-70
2024/01/08 07:04:22;;;;;;;;;;;;;;;-3.32;60.53;96194.38;5020006;28;19925;-70
2024/01/08 07:06:48;;;;;;;;;;;;;;;-3.37;55.73;96193.75;5020632;28;20426;-71
2024/01/08 07:09:13;;;;;;;;;;;;;;;-3.86;54.92;96190.03;5014571;28;20007;-71
2024/01/08 07:11:38;;;;;;;;;;;;;;;-3.84;56.88;96206.41;5013874;28;19929;-69
2024/01/08 07:14:03;;;;;;;;;;;;;;;-3.88;60.43;96202.28;5015148;28;19929;-70
2024/01/08 07:16:29;;;;;;;;;;;;;;;-3.77;63.46;96207.78;5014045;28;20135;-71
2024/01/08 07:18:54;;;;;;;;;;;;;;;-3.68;65.59;96209.97;5014620;28;19929;-70
2024/01/08 07:21:20;;;;;;;;;;;;;;;-3.74;65.46;96218.06;5017772;28;20247;-70
2024/01/08 07:23:45;;;;;;;;;;;;;;;-3.73;61.87;96213.69;5023420;28;19925;-70
2024/01/08 07:26:11;;;;;;;;;;;;;;;-4.04;55.77;96211.63;5020526;28;20457;-71
2024/01/08 07:28:36;;;;;;;;;;;;;;;-3.79;59.87;96205.28;5021075;28;20605;-70
2024/01/08 07:31:03;;;;;;;;;;;;;;;-4.05;58.99;96202.16;5021089;28;19961;-69
2024/01/08 07:33:29;;;;;;;;;;;;;;;-3.96;64.96;96207.84;5023865;28;20459;-70
2024/01/08 07:35:54;;;;;;;;;;;;;;;-4.10;60.01;96208.50;5023080;28;19965;-70
2024/01/08 07:38:21;;;;;;;;;;;;;;;-4.06;54.36;96202.22;5023604;28;19921;-70
2024/01/08 07:40:47;;;;;;;;;;;;;;;-4.14;63.11;96204.34;5021946;28;20386;-70
2024/01/08 07:43:12;;;;;;;;;;;;;;;-4.07;54.36;96211.78;5018932;28;20247;-70
2024/01/08 07:45:37;;;;;;;;;;;;;;;-4.01;59.25;96209.81;5019112;28;20389;-70
2024/01/08 07:48:02;;;;;;;;;;;;;;;-4.19;61.65;96212.34;5022923;28;19929;-70
2024/01/08 07:50:28;;;;;;;;;;;;;;;-4.04;66.56;96206.44;5022255;28;19936;-70
2024/01/08 07:52:53;;;;;;;;;;;;;;;-4.17;57.96;96211.38;5023252;28;20017;-70
2024/01/08 07:55:19;;;;;;;;;;;;;;;-4.08;63.72;96217.06;5017381;28;20046;-71
2024/01/08 07:57:45;;;;;;;;;;;;;;;-3.99;62.43;96215.78;5020800;28;19998;-71
2024/01/08 08:00:11;;;;;;;;;;;;;;;-4.18;57.65;96224.44;5020267;28;20405;-71
2024/01/08 08:02:37;;;;;;;;;;;;;;;-4.12;65.23;96226.75;5022592;28;20273;-71
2024/01/08 08:05:02;;;;;;;;;;;;;;;-3.84;61.99;96229.84;5018699;28;20226;-71
2024/01/08 08:07:28;;;;;;;;;;;;;;;-3.81;64.73;96227.91;5017806;28;19998;-70
2024/01/08 08:09:54;;;;;;;;;;;;;;;-4.06;58.62;96215.22;5022855;28;19924;-71
2024/01/08 08:12:19;;;;;;;;;;;;;;;-4.22;50.57;96217.69;5017773;28;19932;-71
2024/01/08 08:14:47;;;;;;;;;;;;;;;-4.26;57.12;96229.16;5018253;28;19933;-71
2024/01/08 08:17:12;;;;;;;;;;;;;;;-4.31;53.04;96229.38;5023156;28;20207;-71
2024/01/08 08:19:40;;;;;;;;;;;;;;;-4.11;60.57;96228.44;5022570;28;20310;-71
2024/01/08 08:22:05;;;;;;;;;;;;;;;-3.92;62.52;96235.38;5018577;28;19965;-71
2024/01/08 08:24:30;;;;;;;;;;;;;;;-3.53;64.97;96237.00;5017716;28;20705;-71
2024/01/08 08:26:55;;;;;;;;;;;;;;;-3.45;58.63;96238.38;5018221;28;20006;-71
2024/01/08 08:29:21;;;;;;;;;;;;;;;-3.51;63.75;96239.53;5018400;28;19921;-71
2024/01/08 08:31:46;;;;;;;;;;;;;;;-3.53;63.35;96237.00;5018461;28;19935;-71
2024/01/08 08:34:11;;;;;;;;;;;;;;;-3.44;64.54;96229.66;5017964;28;20436;-71
2024/01/08 08:36:37;;;;;;;;;;;;;;;-3.62;61.30;96234.00;5016831;28;19933;-71
2024/01/08 08:39:03;;;;;;;;;;;;;;;-3.56;55.61;96231.09;5016454;28;20098;-71
2024/01/08 08:41:28;;;;;;;;;;;;;;;-3.35;64.62;96236.19;5019108;28;19940;-71
2024/01/08 08:43:54;;;;;;;;;;;;;;;-3.26;62.85;96235.72;5018637;28;20326;-71
2024/01/08 08:46:19;;;;;;;;;;;;;;;-3.37;55.64;96245.84;5022250;28;19965;-71
2024/01/08 08:48:45;;;;;;;;;;;;;;;-3.38;60.32;96245.00;5022520;28;20708;-71
2024/01/08 08:51:10;;;;;;;;;;;;;;;-3.39;59.21;96240.72;5020386;28;19925;-71
2024/01/08 08:53:35;;;;;;;;;;;;;;;-3.19;63.68;96249.28;5016948;28;19929;-71
2024/01/08 08:56:01;;;;;;;;;;;;;;;-3.23;59.20;96245.97;5022438;28;20567;-71
2024/01/08 08:58:26;;;;;;;;;;;;;;;-3.30;58.97;96255.00;5015887;28;20476;-71
2024/01/08 09:00:51;;;;;;;;;;;;;;;-3.27;58.43;96255.72;5013876;28;19959;-71
2024/01/08 09:03:17;;;;;;;;;;;;;;;-3.09;59.97;96263.53;5016643;28;20299;-71
2024/01/08 09:05:42;;;;;;;;;;;;;;;-3.14;59.06;96257.72;5025197;28;19932;-71
2024/01/08 09:08:07;;;;;;;;;;;;;;;-2.98;62.13;96267.38;5029491;28;19936;-73
2024/01/08 09:10:33;;;;;;;;;;;;;;;-2.88;64.60;96269.41;5022089;28;19925;-73
2024/01/08 09:12:58;;;;;;;;;;;;;;;-2.92;61.33;96269.66;5015170;28;19921;-74
2024/01/08 09:15:23;;;;;;;;;;;;;;;-2.67;60.88;96271.88;5013186;28;20413;-74
2024/01/08 09:17:49;;;;;;;;;;;;;;;-2.51;62.05;96274.50;5013742;28;19982;-73
2024/01/08 09:20:15;;;;;;;;;;;;;;;-2.77;61.44;96279.31;5014904;28;19924;-73
2024/01/08 09:22:40;;;;;;;;;;;;;;;-2.70;62.06;96274.63;5019644;28;20112;-72
2024/01/08 09:25:06;;;;;;;;;;;;;;;-2.69;62.00;96278.91;5016618;28;20220;-74
2024/01/08 09:27:32;;;;;;;;;;;;;;;-2.57;58.22;96287.03;5019803;28;19931;-73
2024/01/08 09:29:57;;;;;;;;;;;;;;;-2.47;59.35;96283.03;5013101;28;19929;-74
2024/01/08 09:32:24;;;;;;;;;;;;;;;-2.85;54.33;96291.06;5012343;28;19932;-73
2024/01/08 09:34:49;;;;;;;;;;;;;;;-2.50;63.22;96289.25;5016269;28;20257;-73
2024/01/08 09:37:15;;;;;;;;;;;;;;;-2.72;59.83;96289.50;5016507;28;20189;-73
2024/01/08 09:39:40;;;;;;;;;;;;;;;-2.85;57.53;96286.66;5016512;28;19925;-74
2024/01/08 09:42:07;;;;;;;;;;;;;;;-2.62;59.71;96293.31;5021009;28;19920;-74
2024/01/08 09:44:32;;;;;;;;;;;;;;;-2.54;62.84;96298.13;5017196;28;19925;-73
2024/01/08 09:46:58;;;;;;;;;;;;;;;-2.61;61.41;96299.41;5017226;28;20114;-74
2024/01/08 09:49:23;;;;;;;;;;;;;;;-2.63;60.65;96301.22;5021399;28;19921;-73
2024/01/08 09:51:48;;;;;;;;;;;;;;;-2.34;62.03;96300.63;5021602;28;20461;-73
2024/01/08 09:54:14;;;;;;;;;;;;;;;-2.85;57.30;96298.88;5015812;28;19936;-72
2024/01/08 09:56:39;;;;;;;;;;;;;;;-2.58;51.28;96294.00;5016820;28;20465;-73
2024/01/08 09:59:04;;;;;;;;;;;;;;;-2.72;47.09;96294.72;5018011;28;19925;-72
2024/01/08 10:01:30;;;;;;;;;;;;;;;-2.69;52.32;96283.28;5016745;28;19924;-72
2024/01/08 10:03:55;;;;;;;;;;;;;;;-2.79;49.20;96282.91;5017010;28;20497;-72
2024/01/08 10:06:21;;;;;;;;;;;;;;;-2.68;48.89;96282.38;5017084;28;20199;-73
2024/01/08 10:08:46;;;;;;;;;;;;;;;-2.67;44.56;96276.22;5011077;28;20446;-74
2024/01/08 10:11:11;;;;;;;;;;;;;;;-2.60;50.72;96280.22;5015562;28;19990;-73
2024/01/08 10:13:37;;;;;;;;;;;;;;;-2.47;56.95;96285.63;5020388;28;20407;-73
2024/01/08 10:16:02;;;;;;;;;;;;;;;-2.88;53.97;96281.63;5013718;28;19932;-73
2024/01/08 10:18:28;;;;;;;;;;;;;;;-2.69;48.27;96283.28;5013448;28;19967;-71
2024/01/08 10:21:09;;;;;;;;;;;;;;;-2.46;55.36;96291.69;5014316;28;19936;-71
2024/01/08 10:23:34;;;;;;;;;;;;;;;-2.47;58.76;96297.81;5016300;28;20694;-71
2024/01/08 10:25:59;;;;;;;;;;;;;;;-2.58;51.75;96291.38;5017062;28;20858;-71
2024/01/08 10:28:24;;;;;;;;;;;;;;;-2.56;49.28;96284.34;5021607;28;20416;-70
2024/01/08 10:30:52;;;;;;;;;;;;;;;-2.53;53.94;96288.56;5013196;28;19928;-70
2024/01/08 10:33:17;;;;;;;;;;;;;;;-2.51;54.63;96287.53;5015514;28;19928;-71
2024/01/08 10:35:43;;;;;;;;;;;;;;;-2.43;58.47;96286.31;5018598;28;19928;-71
2024/01/08 10:38:08;;;;;;;;;;;;;;;-2.24;55.12;96284.41;5014900;28;19928;-71
2024/01/08 10:40:35;;;;;;;;;;;;;;;-2.23;50.24;96287.88;5010568;28;20095;-71
2024/01/08 10:43:00;;;;;;;;;;;;;;;-2.35;47.04;96288.53;5016217;28;19925;-71
2024/01/08 10:45:25;;;;;;;;;;;;;;;-2.12;58.29;96292.50;5012168;28;20126;-70
2024/01/08 10:48:20;;;;;;;;;;;;;;;-2.23;52.50;96285.28;5017299;28;20478;-70
2024/01/08 10:50:45;;;;;;;;;;;;;;;-2.25;47.20;96285.34;5012575;28;20387;-70
2024/01/08 10:53:14;;;;;;;;;;;;;;;-2.75;39.58;96280.06;5018393;28;20065;-70
2024/01/08 10:55:39;;;;;;;;;;;;;;;-2.62;51.20;96292.47;5014586;28;19933;-70
2024/01/08 10:58:07;;;;;;;;;;;;;;;-2.62;42.62;96282.91;5014100;28;19921;-69
2024/01/08 11:00:33;;;;;;;;;;;;;;;-2.45;47.47;96283.78;5014970;28;19951;-69
2024/01/08 11:02:58;;;;;;;;;;;;;;;-2.42;44.87;96285.38;5018166;28;20125;-69
2024/01/08 11:05:25;;;;;;;;;;;;;;;-2.32;59.11;96286.59;5017578;28;19924;-69
2024/01/08 11:07:50;;;;;;;;;;;;;;;-2.79;48.82;96291.56;5015510;28;19925;-69
2024/01/08 11:10:16;;;;;;;;;;;;;;;-2.42;52.84;96295.81;5013972;28;19921;-69
2024/01/08 11:12:41;;;;;;;;;;;;;;;-2.39;48.08;96285.22;5013677;28;19920;-70
2024/01/08 11:15:07;;;;;;;;;;;;;;;-2.29;46.19;96278.59;5021205;28;19933;-68
2024/01/08 11:17:32;;;;;;;;;;;;;;;-1.96;57.15;96289.09;5014862;28;19928;-69
2024/01/08 11:19:59;;;;;;;;;;;;;;;-1.85;53.92;96284.13;5020640;28;19954;-69
2024/01/08 11:22:24;;;;;;;;;;;;;;;-2.42;38.83;96280.16;5013823;28;21649;-69
2024/01/08 11:24:50;;;;;;;;;;;;;;;-2.14;50.66;96278.72;5016469;28;19921;-69
2024/01/08 11:27:15;;;;;;;;;;;;;;;-1.94;47.68;96285.47;5015490;28;19967;-68
2024/01/08 11:29:41;;;;;;;;;;;;;;;-1.91;52.71;96284.44;5014109;28;19921;-69
2024/01/08 11:32:26;;;;;;;;;;;;;;;-2.08;41.32;96282.78;5011617;28;19942;-68
2024/01/08 11:34:56;;;;;;;;;;;;;;;-2.05;47.04;96282.59;5007904;28;20108;-68
2024/01/08 11:37:29;;;;;;;;;;;;;;;-2.02;52.03;96288.50;5016734;28;19970;-68
2024/01/08 11:39:54;;;;;;;;;;;;;;;-1.90;62.89;96288.75;5013676;28;19925;-68
2024/01/08 11:42:20;;;;;;;;;;;;;;;-1.73;45.50;96286.06;5013055;28;19936;-69
2024/01/08 11:44:45;;;;;;;;;;;;;;;-1.52;51.05;96280.56;5011457;28;20016;-69
2024/01/08 11:47:10;;;;;;;;;;;;;;;-1.74;41.05;96287.00;5012777;28;19979;-69
2024/01/08 11:49:35;;;;;;;;;;;;;;;-1.18;56.39;96290.03;5016682;28;19929;-69
2024/01/08 11:52:01;;;;;;;;;;;;;;;-1.01;57.06;96284.69;5013407;28;19925;-69
2024/01/08 11:54:26;;;;;;;;;;;;;;;-0.66;42.38;96282.72;5006910;28;20315;-69
2024/01/08 11:56:51;;;;;;;;;;;;;;;0.62;57.06;96277.56;5015653;28;20318;-69
2024/01/08 11:59:32;;;;;;;;;;;;;;;2.84;51.82;96273.88;5010786;28;20254;-69
2024/01/08 12:02:09;;;;;;;;;;;;;;;4.75;46.39;96265.47;5019658;28;20362;-70
2024/01/08 12:04:35;;;;;;;;;;;;;;;5.50;32.72;96264.69;5013033;28;19932;-70
2024/01/08 12:07:00;;;;;;;;;;;;;;;6.62;35.42;96260.38;5018783;28;20394;-69
2024/01/08 12:09:29;;;;;;;;;;;;;;;7.94;39.32;96267.94;5015689;28;19929;-69
2024/01/08 12:12:02;;;;;;;;;;;;;;;9.01;34.91;96260.34;5019883;28;19992;-70
2024/01/08 12:14:27;;;;;;;;;;;;;;;9.98;30.19;96272.00;5020231;28;19967;-70
2024/01/08 12:16:52;;;;;;;;;;;;;;;11.94;31.27;96265.69;5024934;28;20344;-70
2024/01/08 12:19:17;;;;;;;;;;;;;;;10.54;29.82;96274.25;5018086;28;19976;-70
2024/01/08 12:21:43;;;;;;;;;;;;;;;11.93;32.57;96272.03;5020757;28;20343;-70
2024/01/08 12:24:08;;;;;;;;;;;;;;;12.57;31.09;96270.34;5019667;28;20629;-70
2024/01/08 12:26:33;;;;;;;;;;;;;;;11.56;19.01;96263.59;5018414;28;19929;-71
2024/01/08 12:28:59;;;;;;;;;;;;;;;13.32;28.59;96270.69;5016177;28;20220;-71
2024/01/08 12:31:31;;;;;;;;;;;;;;;14.03;28.21;96277.59;5017656;28;20569;-71
2024/01/08 12:33:57;;;;;;;;;;;;;;;13.93;15.63;96267.16;5013465;28;20310;-71
2024/01/08 12:36:22;;;;;;;;;;;;;;;14.39;28.47;96275.19;5019343;28;20430;-71
2024/01/08 12:38:47;;;;;;;;;;;;;;;14.28;16.69;96260.44;5019332;28;19936;-70